sensor_id;sensor_type;location;lat;lon;timestamp;pressure;altitude;pressure_sealevel;temperature;humidity
7962;BME280;4026;43.652;24.906;2024-02-04T00:01:00;99395.09;;;5.96;100.00
7962;BME280;4026;43.652;24.906;2024-02-04T00:03:26;99394.53;;;6.08;100.00
7962;BME280;4026;43.652;24.906;2024-02-04T00:05:53;99393.78;;;6.06;100.00
7962;BME280;4026;43.652;24.906;2024-02-04T00:08:20;99394.22;;;6.15;100.00
7962;BME280;4026;43.652;24.906;2024-02-04T00:10:47;99397.38;;;6.20;100.00
7962;BME280;4026;43.652;24.906;2024-02-04T00:13:14;99397.06;;;6.26;100.00
7962;BME280;4026;43.652;24.906;2024-02-04T00:15:41;99396.59;;;6.35;100.00
7962;BME280;4026;43.652;24.906;2024-02-04T00:18:09;99401.38;;;6.41;100.00
7962;BME280;4026;43.652;24.906;2024-02-04T00:20:35;99405.81;;;6.53;100.00
7962;BME280;4026;43.652;24.906;2024-02-04T00:23:03;99407.91;;;6.63;100.00
7962;BME280;4026;43.652;24.906;2024-02-04T00:25:29;99411.63;;;6.73;100.00
7962;BME280;4026;43.652;24.906;2024-02-04T00:27:55;99415.03;;;6.72;100.00
7962;BME280;4026;43.652;24.906;2024-02-04T00:30:22;99413.09;;;6.77;100.00
7962;BME280;4026;43.652;24.906;2024-02-04T00:32:49;99414.59;;;6.81;100.00
7962;BME280;4026;43.652;24.906;2024-02-04T00:35:17;99407.84;;;6.80;100.00
7962;BME280;4026;43.652;24.906;2024-02-04T00:37:44;99406.06;;;6.82;100.00
7962;BME280;4026;43.652;24.906;2024-02-04T00:40:11;99411.16;;;6.82;100.00
7962;BME280;4026;43.652;24.906;2024-02-04T00:42:38;99404.84;;;6.89;100.00
7962;BME280;4026;43.652;24.906;2024-02-04T00:45:05;99397.38;;;6.86;100.00
7962;BME280;4026;43.652;24.906;2024-02-04T00:47:32;99397.69;;;6.80;100.00
7962;BME280;4026;43.652;24.906;2024-02-04T00:49:59;99401.31;;;6.76;100.00
7962;BME280;4026;43.652;24.906;2024-02-04T00:52:27;99399.91;;;6.70;100.00
7962;BME280;4026;43.652;24.906;2024-02-04T00:54:54;99402.28;;;6.73;100.00
7962;BME280;4026;43.652;24.906;2024-02-04T00:57:21;99396.53;;;6.70;100.00
7962;BME280;4026;43.652;24.906;2024-02-04T00:59:48;99404.00;;;6.73;100.00
7962;BME280;4026;43.652;24.906;2024-02-04T01:02:15;99400.72;;;6.71;100.00
7962;BME280;4026;43.652;24.906;2024-02-04T01:04:42;99401.31;;;6.76;100.00
7962;BME280;4026;43.652;24.906;2024-02-04T01:07:09;99398.00;;;6.74;100.00
7962;BME280;4026;43.652;24.906;2024-02-04T01:09:37;99393.09;;;6.71;100.00
7962;BME280;4026;43.652;24.906;2024-02-04T01:12:04;99390.22;;;6.77;100.00
7962;BME280;4026;43.652;24.906;2024-02-04T01:14:31;99383.66;;;6.73;100.00
7962;BME280;4026;43.652;24.906;2024-02-04T01:16:58;99380.38;;;6.71;100.00
7962;BME280;4026;43.652;24.906;2024-02-04T01:19:25;99372.00;;;6.69;100.00
7962;BME280;4026;43.652;24.906;2024-02-04T01:21:52;99378.75;;;6.70;100.00
7962;BME280;4026;43.652;24.906;2024-02-04T01:24:18;99383.25;;;6.65;100.00
7962;BME280;4026;43.652;24.906;2024-02-04T01:26:47;99384.00;;;6.67;100.00
7962;BME280;4026;43.652;24.906;2024-02-04T01:29:13;99378.16;;;6.65;100.00
7962;BME280;4026;43.652;24.906;2024-02-04T01:31:40;99373.25;;;6.62;100.00
7962;BME280;4026;43.652;24.906;2024-02-04T01:34:07;99360.53;;;6.62;100.00
7962;BME280;4026;43.652;24.906;2024-02-04T01:36:34;99357.84;;;6.65;100.00
7962;BME280;4026;43.652;24.906;2024-02-04T01:39:02;99352.91;;;6.62;100.00
7962;BME280;4026;43.652;24.906;2024-02-04T01:41:30;99353.88;;;6.59;100.00
7962;BME280;4026;43.652;24.906;2024-02-04T01:43:58;99338.97;;;6.53;100.00
7962;BME280;4026;43.652;24.906;2024-02-04T01:46:25;99344.28;;;6.48;100.00
7962;BME280;4026;43.652;24.906;2024-02-04T01:48:52;99348.47;;;6.49;100.00
7962;BME280;4026;43.652;24.906;2024-02-04T01:51:20;99344.44;;;6.45;100.00
7962;BME280;4026;43.652;24.906;2024-02-04T01:53:47;99337.25;;;6.53;100.00
7962;BME280;4026;43.652;24.906;2024-02-04T01:56:15;99337.50;;;6.49;100.00
7962;BME280;4026;43.652;24.906;2024-02-04T01:58:43;99328.00;;;6.52;100.00
7962;BME280;4026;43.652;24.906;2024-02-04T02:01:12;99323.19;;;6.64;100.00
7962;BME280;4026;43.652;24.906;2024-02-04T02:03:39;99319.13;;;6.60;100.00
7962;BME280;4026;43.652;24.906;2024-02-04T02:06:06;99310.78;;;6.57;100.00
7962;BME280;4026;43.652;24.906;2024-02-04T02:08:34;99306.38;;;6.61;100.00
7962;BME280;4026;43.652;24.906;2024-02-04T02:11:05;99312.09;;;6.65;100.00
7962;BME280;4026;43.652;24.906;2024-02-04T02:13:36;99303.72;;;6.63;100.00
7962;BME280;4026;43.652;24.906;2024-02-04T02:16:09;99314.06;;;6.60;100.00
7962;BME280;4026;43.652;24.906;2024-02-04T02:18:44;99312.44;;;6.58;100.00
7962;BME280;4026;43.652;24.906;2024-02-04T02:21:28;99314.97;;;6.58;100.00
7962;BME280;4026;43.652;24.906;2024-02-04T02:24:08;99314.06;;;6.60;100.00
7962;BME280;4026;43.652;24.906;2024-02-04T02:26:38;99311.41;;;6.45;100.00
7962;BME280;4026;43.652;24.906;2024-02-04T02:29:05;99322.53;;;6.43;100.00
7962;BME280;4026;43.652;24.906;2024-02-04T02:31:34;99318.16;;;6.46;100.00
7962;BME280;4026;43.652;24.906;2024-02-04T02:34:01;99318.31;;;6.43;100.00
7962;BME280;4026;43.652;24.906;2024-02-04T02:36:33;99316.09;;;6.37;100.00
7962;BME280;4026;43.652;24.906;2024-02-04T02:39:08;99311.28;;;6.31;100.00
7962;BME280;4026;43.652;24.906;2024-02-04T02:41:38;99315.81;;;6.26;100.00
7962;BME280;4026;43.652;24.906;2024-02-04T02:44:08;99327.59;;;6.27;100.00
7962;BME280;4026;43.652;24.906;2024-02-04T02:46:36;99333.66;;;6.24;100.00
7962;BME280;4026;43.652;24.906;2024-02-04T02:49:04;99331.47;;;6.17;100.00
7962;BME280;4026;43.652;24.906;2024-02-04T02:51:31;99330.66;;;6.16;100.00
7962;BME280;4026;43.652;24.906;2024-02-04T02:53:58;99336.72;;;6.13;100.00
7962;BME280;4026;43.652;24.906;2024-02-04T02:56:24;99326.00;;;6.08;100.00
7962;BME280;4026;43.652;24.906;2024-02-04T02:58:53;99328.00;;;6.02;100.00
7962;BME280;4026;43.652;24.906;2024-02-04T03:01:20;99322.19;;;6.00;100.00
7962;BME280;4026;43.652;24.906;2024-02-04T03:03:49;99322.41;;;5.95;100.00
7962;BME280;4026;43.652;24.906;2024-02-04T03:06:15;99327.47;;;5.95;100.00
7962;BME280;4026;43.652;24.906;2024-02-04T03:08:42;99318.28;;;5.93;100.00
7962;BME280;4026;43.652;24.906;2024-02-04T03:11:09;99324.31;;;5.90;100.00
7962;BME280;4026;43.652;24.906;2024-02-04T03:13:38;99326.84;;;5.90;100.00
7962;BME280;4026;43.652;24.906;2024-02-04T03:16:10;99324.47;;;5.87;100.00
7962;BME280;4026;43.652;24.906;2024-02-04T03:18:38;99316.13;;;5.85;100.00
7962;BME280;4026;43.652;24.906;2024-02-04T03:21:11;99313.50;;;5.86;100.00
7962;BME280;4026;43.652;24.906;2024-02-04T03:23:38;99320.28;;;5.86;100.00
7962;BME280;4026;43.652;24.906;2024-02-04T03:26:05;99321.06;;;5.88;100.00
7962;BME280;4026;43.652;24.906;2024-02-04T03:28:32;99319.25;;;5.90;100.00
7962;BME280;4026;43.652;24.906;2024-02-04T03:30:58;99319.38;;;5.87;100.00
7962;BME280;4026;43.652;24.906;2024-02-04T03:33:27;99324.41;;;5.88;100.00
7962;BME280;4026;43.652;24.906;2024-02-04T03:35:53;99326.78;;;5.92;100.00
7962;BME280;4026;43.652;24.906;2024-02-04T03:38:20;99327.69;;;5.90;100.00
7962;BME280;4026;43.652;24.906;2024-02-04T03:40:47;99328.31;;;5.96;100.00
7962;BME280;4026;43.652;24.906;2024-02-04T03:43:14;99328.25;;;5.97;100.00
7962;BME280;4026;43.652;24.906;2024-02-04T03:45:41;99328.25;;;5.97;100.00
7962;BME280;4026;43.652;24.906;2024-02-04T03:48:07;99327.28;;;6.00;100.00
7962;BME280;4026;43.652;24.906;2024-02-04T03:50:37;99318.97;;;5.96;100.00
7962;BME280;4026;43.652;24.906;2024-02-04T03:53:03;99323.91;;;5.99;100.00
7962;BME280;4026;43.652;24.906;2024-02-04T03:55:30;99333.91;;;6.02;100.00
7962;BME280;4026;43.652;24.906;2024-02-04T03:57:57;99321.13;;;6.04;100.00
7962;BME280;4026;43.652;24.906;2024-02-04T04:00:24;99319.34;;;6.06;100.00
7962;BME280;4026;43.652;24.906;2024-02-04T04:02:51;99323.59;;;6.05;100.00
7962;BME280;4026;43.652;24.906;2024-02-04T04:05:18;99320.16;;;6.06;100.00
7962;BME280;4026;43.652;24.906;2024-02-04T04:07:46;99322.69;;;6.06;100.00
7962;BME280;4026;43.652;24.906;2024-02-04T04:10:13;99321.13;;;6.04;100.00
7962;BME280;4026;43.652;24.906;2024-02-04T04:12:39;99322.09;;;6.01;100.00
7962;BME280;4026;43.652;24.906;2024-02-04T04:15:07;99329.72;;;6.01;100.00
7962;BME280;4026;43.652;24.906;2024-02-04T04:17:34;99335.84;;;5.97;100.00
7962;BME280;4026;43.652;24.906;2024-02-04T04:20:00;99335.03;;;5.97;100.00
7962;BME280;4026;43.652;24.906;2024-02-04T04:22:28;99335.31;;;5.90;100.00
7962;BME280;4026;43.652;24.906;2024-02-04T04:24:56;99327.75;;;5.89;100.00
7962;BME280;4026;43.652;24.906;2024-02-04T04:27:23;99328.22;;;5.80;100.00
7962;BME280;4026;43.652;24.906;2024-02-04T04:29:49;99326.44;;;5.82;100.00
7962;BME280;4026;43.652;24.906;2024-02-04T04:32:16;99326.56;;;5.79;100.00
7962;BME280;4026;43.652;24.906;2024-02-04T04:34:43;99319.84;;;5.78;100.00
7962;BME280;4026;43.652;24.906;2024-02-04T04:37:10;99331.50;;;5.64;100.00
7962;BME280;4026;43.652;24.906;2024-02-04T04:39:37;99333.19;;;5.64;100.00
7962;BME280;4026;43.652;24.906;2024-02-04T04:42:05;99334.19;;;5.61;100.00
7962;BME280;4026;43.652;24.906;2024-02-04T04:44:32;99337.59;;;5.60;100.00
7962;BME280;4026;43.652;24.906;2024-02-04T04:46:58;99334.31;;;5.58;100.00
7962;BME280;4026;43.652;24.906;2024-02-04T04:49:25;99338.03;;;5.51;100.00
7962;BME280;4026;43.652;24.906;2024-02-04T04:51:52;99343.78;;;5.55;100.00
7962;BME280;4026;43.652;24.906;2024-02-04T04:54:19;99344.59;;;5.55;100.00
7962;BME280;4026;43.652;24.906;2024-02-04T04:56:45;99338.09;;;5.50;100.00
7962;BME280;4026;43.652;24.906;2024-02-04T04:59:15;99348.47;;;5.45;100.00
7962;BME280;4026;43.652;24.906;2024-02-04T05:01:45;99346.97;;;5.41;100.00
7962;BME280;4026;43.652;24.906;2024-02-04T05:04:12;99348.75;;;5.39;100.00
7962;BME280;4026;43.652;24.906;2024-02-04T05:06:39;99347.94;;;5.38;100.00
7962;BME280;4026;43.652;24.906;2024-02-04T05:09:06;99339.88;;;5.30;100.00
7962;BME280;4026;43.652;24.906;2024-02-04T05:11:34;99337.41;;;5.29;100.00
7962;BME280;4026;43.652;24.906;2024-02-04T05:14:01;99346.19;;;5.21;100.00
7962;BME280;4026;43.652;24.906;2024-02-04T05:16:28;99345.28;;;5.22;100.00
7962;BME280;4026;43.652;24.906;2024-02-04T05:18:55;99342.97;;;5.18;100.00
7962;BME280;4026;43.652;24.906;2024-02-04T05:21:21;99344.75;;;5.16;100.00
7962;BME280;4026;43.652;24.906;2024-02-04T05:23:48;99337.16;;;5.16;100.00
7962;BME280;4026;43.652;24.906;2024-02-04T05:26:17;99339.53;;;5.19;100.00
7962;BME280;4026;43.652;24.906;2024-02-04T05:28:44;99345.66;;;5.15;100.00
7962;BME280;4026;43.652;24.906;2024-02-04T05:31:11;99353.19;;;5.16;100.00
7962;BME280;4026;43.652;24.906;2024-02-04T05:33:39;99350.44;;;5.21;100.00
7962;BME280;4026;43.652;24.906;2024-02-04T05:36:06;99353.56;;;5.26;100.00
7962;BME280;4026;43.652;24.906;2024-02-04T05:38:33;99359.47;;;5.27;100.00
7962;BME280;4026;43.652;24.906;2024-02-04T05:41:00;99359.94;;;5.35;100.00
7962;BME280;4026;43.652;24.906;2024-02-04T05:43:27;99361.31;;;5.42;100.00
7962;BME280;4026;43.652;24.906;2024-02-04T05:45:53;99356.28;;;5.40;100.00
7962;BME280;4026;43.652;24.906;2024-02-04T05:48:20;99362.78;;;5.46;100.00
7962;BME280;4026;43.652;24.906;2024-02-04T05:50:48;99362.78;;;5.46;100.00
7962;BME280;4026;43.652;24.906;2024-02-04T05:53:15;99365.03;;;5.52;100.00
7962;BME280;4026;43.652;24.906;2024-02-04T05:55:42;99366.84;;;5.50;100.00
7962;BME280;4026;43.652;24.906;2024-02-04T05:58:09;99354.75;;;5.55;100.00
7962;BME280;4026;43.652;24.906;2024-02-04T06:00:36;99359.66;;;5.58;100.00
7962;BME280;4026;43.652;24.906;2024-02-04T06:03:03;99370.66;;;5.59;100.00
7962;BME280;4026;43.652;24.906;2024-02-04T06:05:30;99366.41;;;5.59;100.00
7962;BME280;4026;43.652;24.906;2024-02-04T06:07:58;99370.72;;;5.57;100.00
7962;BME280;4026;43.652;24.906;2024-02-04T06:10:25;99371.09;;;5.67;100.00
7962;BME280;4026;43.652;24.906;2024-02-04T06:12:52;99368.69;;;5.64;100.00
7962;BME280;4026;43.652;24.906;2024-02-04T06:15:19;99364.47;;;5.64;100.00
7962;BME280;4026;43.652;24.906;2024-02-04T06:17:46;99368.50;;;5.68;100.00
7962;BME280;4026;43.652;24.906;2024-02-04T06:20:13;99368.50;;;5.68;100.00
7962;BME280;4026;43.652;24.906;2024-02-04T06:22:40;99375.66;;;5.78;100.00
7962;BME280;4026;43.652;24.906;2024-02-04T06:25:08;99383.59;;;5.89;100.00
7962;BME280;4026;43.652;24.906;2024-02-04T06:27:35;99390.03;;;5.96;100.00
7962;BME280;4026;43.652;24.906;2024-02-04T06:30:02;99394.81;;;6.02;100.00
7962;BME280;4026;43.652;24.906;2024-02-04T06:32:29;99402.88;;;6.10;100.00
7962;BME280;4026;43.652;24.906;2024-02-04T06:34:56;99404.88;;;6.21;100.00
7962;BME280;4026;43.652;24.906;2024-02-04T06:37:23;99410.47;;;6.28;100.00
7962;BME280;4026;43.652;24.906;2024-02-04T06:39:51;99410.88;;;6.38;100.00
7962;BME280;4026;43.652;24.906;2024-02-04T06:42:19;99404.66;;;6.43;100.00
7962;BME280;4026;43.652;24.906;2024-02-04T06:44:46;99409.59;;;6.46;100.00
7962;BME280;4026;43.652;24.906;2024-02-04T06:47:13;99413.22;;;6.58;100.00
7962;BME280;4026;43.652;24.906;2024-02-04T06:49:43;99412.59;;;6.70;100.00
7962;BME280;4026;43.652;24.906;2024-02-04T06:52:10;99403.59;;;6.80;100.00
7962;BME280;4026;43.652;24.906;2024-02-04T06:54:36;99410.97;;;6.85;100.00
7962;BME280;4026;43.652;24.906;2024-02-04T06:57:03;99397.88;;;6.93;100.00
7962;BME280;4026;43.652;24.906;2024-02-04T06:59:31;99401.25;;;6.93;100.00
7962;BME280;4026;43.652;24.906;2024-02-04T07:01:58;99403.53;;;6.98;100.00
7962;BME280;4026;43.652;24.906;2024-02-04T07:04:25;99406.75;;;7.01;100.00
7962;BME280;4026;43.652;24.906;2024-02-04T07:06:52;99400.28;;;7.12;100.00
7962;BME280;4026;43.652;24.906;2024-02-04T07:09:19;99406.25;;;7.11;100.00
7962;BME280;4026;43.652;24.906;2024-02-04T07:11:45;99403.31;;;7.18;100.00
7962;BME280;4026;43.652;24.906;2024-02-04T07:14:13;99402.16;;;7.24;100.00
7962;BME280;4026;43.652;24.906;2024-02-04T07:16:41;99395.09;;;7.29;100.00
7962;BME280;4026;43.652;24.906;2024-02-04T07:19:08;99415.28;;;7.32;100.00
7962;BME280;4026;43.652;24.906;2024-02-04T07:21:35;99421.69;;;7.39;100.00
7962;BME280;4026;43.652;24.906;2024-02-04T07:24:01;99411.19;;;7.45;100.00
7962;BME280;4026;43.652;24.906;2024-02-04T07:26:28;99408.31;;;7.52;100.00
7962;BME280;4026;43.652;24.906;2024-02-04T07:28:55;99406.06;;;7.61;100.00
7962;BME280;4026;43.652;24.906;2024-02-04T07:31:22;99407.88;;;7.75;100.00
7962;BME280;4026;43.652;24.906;2024-02-04T07:33:50;99417.38;;;7.87;100.00
7962;BME280;4026;43.652;24.906;2024-02-04T07:36:17;99422.44;;;8.03;100.00
7962;BME280;4026;43.652;24.906;2024-02-04T07:38:44;99420.03;;;8.30;100.00
7962;BME280;4026;43.652;24.906;2024-02-04T07:41:13;99414.81;;;8.62;100.00
7962;BME280;4026;43.652;24.906;2024-02-04T07:43:40;99418.09;;;8.78;100.00
7962;BME280;4026;43.652;24.906;2024-02-04T07:46:07;99426.28;;;8.83;100.00
7962;BME280;4026;43.652;24.906;2024-02-04T07:48:34;99423.03;;;8.81;100.00
7962;BME280;4026;43.652;24.906;2024-02-04T07:51:03;99423.28;;;8.77;100.00
7962;BME280;4026;43.652;24.906;2024-02-04T07:53:29;99434.59;;;8.73;100.00
7962;BME280;4026;43.652;24.906;2024-02-04T07:55:56;99426.47;;;8.66;100.00
7962;BME280;4026;43.652;24.906;2024-02-04T07:58:23;99435.22;;;8.62;100.00
7962;BME280;4026;43.652;24.906;2024-02-04T08:00:51;99432.09;;;8.57;100.00
7962;BME280;4026;43.652;24.906;2024-02-04T08:03:18;99431.19;;;8.58;100.00
7962;BME280;4026;43.652;24.906;2024-02-04T08:05:45;99426.84;;;8.60;100.00
7962;BME280;4026;43.652;24.906;2024-02-04T08:08:13;99425.75;;;8.50;100.00
7962;BME280;4026;43.652;24.906;2024-02-04T08:10:40;99431.03;;;8.47;100.00
7962;BME280;4026;43.652;24.906;2024-02-04T08:13:07;99441.91;;;8.49;100.00
7962;BME280;4026;43.652;24.906;2024-02-04T08:15:34;99439.38;;;8.49;100.00
7962;BME280;4026;43.652;24.906;2024-02-04T08:18:01;99445.78;;;8.56;100.00
7962;BME280;4026;43.652;24.906;2024-02-04T08:20:28;99444.13;;;8.55;100.00
7962;BME280;4026;43.652;24.906;2024-02-04T08:22:55;99435.22;;;8.62;100.00
7962;BME280;4026;43.652;24.906;2024-02-04T08:25:23;99436.47;;;8.69;100.00
7962;BME280;4026;43.652;24.906;2024-02-04T08:27:49;99434.50;;;8.74;100.00
7962;BME280;4026;43.652;24.906;2024-02-04T08:30:17;99430.69;;;8.81;100.00
7962;BME280;4026;43.652;24.906;2024-02-04T08:32:44;99426.84;;;8.89;100.00
7962;BME280;4026;43.652;24.906;2024-02-04T08:35:11;99431.38;;;8.98;100.00
7962;BME280;4026;43.652;24.906;2024-02-04T08:37:38;99437.03;;;9.17;100.00
7962;BME280;4026;43.652;24.906;2024-02-04T08:40:06;99427.44;;;9.21;100.00
7962;BME280;4026;43.652;24.906;2024-02-04T08:42:34;99421.72;;;9.17;100.00
7962;BME280;4026;43.652;24.906;2024-02-04T08:45:02;99425.72;;;9.21;100.00
7962;BME280;4026;43.652;24.906;2024-02-04T08:47:29;99431.91;;;9.17;100.00
7962;BME280;4026;43.652;24.906;2024-02-04T08:49:56;99428.63;;;9.15;100.00
7962;BME280;4026;43.652;24.906;2024-02-04T08:52:23;99423.25;;;9.20;100.00
7962;BME280;4026;43.652;24.906;2024-02-04T08:54:50;99425.81;;;9.20;100.00
7962;BME280;4026;43.652;24.906;2024-02-04T08:57:17;99431.72;;;9.20;100.00
7962;BME280;4026;43.652;24.906;2024-02-04T08:59:45;99424.44;;;9.28;100.00
7962;BME280;4026;43.652;24.906;2024-02-04T09:02:11;99422.78;;;9.27;100.00
7962;BME280;4026;43.652;24.906;2024-02-04T09:04:38;99433.34;;;9.36;100.00
7962;BME280;4026;43.652;24.906;2024-02-04T09:07:08;99448.81;;;9.47;100.00
7962;BME280;4026;43.652;24.906;2024-02-04T09:09:34;99444.97;;;9.54;100.00
7962;BME280;4026;43.652;24.906;2024-02-04T09:12:01;99465.91;;;9.59;100.00
7962;BME280;4026;43.652;24.906;2024-02-04T09:14:28;99467.66;;;9.59;100.00
7962;BME280;4026;43.652;24.906;2024-02-04T09:16:56;99465.81;;;9.61;100.00
7962;BME280;4026;43.652;24.906;2024-02-04T09:19:24;99468.44;;;9.73;100.00
7962;BME280;4026;43.652;24.906;2024-02-04T09:21:50;99472.56;;;9.89;100.00
7962;BME280;4026;43.652;24.906;2024-02-04T09:24:17;99467.72;;;9.98;100.00
7962;BME280;4026;43.652;24.906;2024-02-04T09:26:44;99470.88;;;10.02;100.00
7962;BME280;4026;43.652;24.906;2024-02-04T10:14:37;99440.81;;;9.93;100.00
7962;BME280;4026;43.652;24.906;2024-02-04T10:17:04;99445.72;;;9.96;100.00
7962;BME280;4026;43.652;24.906;2024-02-04T10:19:31;99450.25;;;10.05;100.00
7962;BME280;4026;43.652;24.906;2024-02-04T10:21:59;99447.59;;;10.07;100.00
7962;BME280;4026;43.652;24.906;2024-02-04T10:24:26;99441.09;;;10.15;100.00
7962;BME280;4026;43.652;24.906;2024-02-04T10:26:54;99444.78;;;10.24;100.00
7962;BME280;4026;43.652;24.906;2024-02-04T10:29:21;99443.75;;;10.27;100.00
7962;BME280;4026;43.652;24.906;2024-02-04T10:31:53;99431.09;;;10.38;100.00
7962;BME280;4026;43.652;24.906;2024-02-04T10:34:19;99436.44;;;10.48;100.00
7962;BME280;4026;43.652;24.906;2024-02-04T10:36:46;99434.78;;;10.47;99.96
7962;BME280;4026;43.652;24.906;2024-02-04T10:39:13;99431.00;;;10.52;99.50
7962;BME280;4026;43.652;24.906;2024-02-04T10:41:46;99430.72;;;10.70;99.65
7962;BME280;4026;43.652;24.906;2024-02-04T10:44:16;99433.78;;;10.75;98.86
7962;BME280;4026;43.652;24.906;2024-02-04T10:46:46;99433.66;;;10.89;97.75
7962;BME280;4026;43.652;24.906;2024-02-04T10:49:15;99420.63;;;11.18;97.21
7962;BME280;4026;43.652;24.906;2024-02-04T10:51:42;99425.97;;;11.39;93.74
7962;BME280;4026;43.652;24.906;2024-02-04T10:54:11;99431.91;;;11.63;91.86
7962;BME280;4026;43.652;24.906;2024-02-04T10:56:42;99416.00;;;11.71;90.86
7962;BME280;4026;43.652;24.906;2024-02-04T10:59:10;99411.03;;;11.69;90.49
7962;BME280;4026;43.652;24.906;2024-02-04T11:01:38;99411.50;;;11.50;91.53
7962;BME280;4026;43.652;24.906;2024-02-04T11:04:08;99415.44;;;11.43;91.86
7962;BME280;4026;43.652;24.906;2024-02-04T11:06:40;99396.72;;;11.30;90.70
7962;BME280;4026;43.652;24.906;2024-02-04T11:09:08;99397.91;;;11.37;91.83
7962;BME280;4026;43.652;24.906;2024-02-04T11:11:35;99390.19;;;11.26;92.87
7962;BME280;4026;43.652;24.906;2024-02-04T11:14:05;99389.81;;;11.43;91.99
7962;BME280;4026;43.652;24.906;2024-02-04T11:16:50;99363.78;;;11.49;91.54
7962;BME280;4026;43.652;24.906;2024-02-04T11:19:32;99370.41;;;12.11;90.65
7962;BME280;4026;43.652;24.906;2024-02-04T11:22:27;99377.09;;;12.70;86.57
7962;BME280;4026;43.652;24.906;2024-02-04T11:27:51;99376.31;;;13.47;83.10
7962;BME280;4026;43.652;24.906;2024-02-04T11:30:19;99383.22;;;13.67;81.41
7962;BME280;4026;43.652;24.906;2024-02-04T11:32:46;99386.78;;;13.44;81.99
7962;BME280;4026;43.652;24.906;2024-02-04T11:35:12;99383.03;;;13.59;80.69
7962;BME280;4026;43.652;24.906;2024-02-04T11:37:41;99375.94;;;13.72;77.79
7962;BME280;4026;43.652;24.906;2024-02-04T11:40:14;99373.34;;;13.51;77.55
7962;BME280;4026;43.652;24.906;2024-02-04T11:42:41;99374.00;;;13.65;78.69
7962;BME280;4026;43.652;24.906;2024-02-04T11:45:09;99375.28;;;13.91;78.00
7962;BME280;4026;43.652;24.906;2024-02-04T11:47:37;99370.94;;;13.92;77.26
7962;BME280;4026;43.652;24.906;2024-02-04T11:50:05;99371.25;;;14.19;74.63
7962;BME280;4026;43.652;24.906;2024-02-04T11:52:32;99370.50;;;14.08;75.39
7962;BME280;4026;43.652;24.906;2024-02-04T11:55:01;99366.19;;;14.08;74.50
7962;BME280;4026;43.652;24.906;2024-02-04T11:57:29;99355.75;;;14.31;72.55
7962;BME280;4026;43.652;24.906;2024-02-04T11:59:57;99362.13;;;14.57;72.00
7962;BME280;4026;43.652;24.906;2024-02-04T12:02:26;99358.13;;;14.74;69.97
7962;BME280;4026;43.652;24.906;2024-02-04T12:04:54;99352.16;;;14.74;69.51
7962;BME280;4026;43.652;24.906;2024-02-04T12:07:21;99348.97;;;14.91;67.92
7962;BME280;4026;43.652;24.906;2024-02-04T12:09:49;99357.56;;;14.70;70.29
7962;BME280;4026;43.652;24.906;2024-02-04T12:12:17;99349.94;;;14.59;70.02
7962;BME280;4026;43.652;24.906;2024-02-04T12:14:45;99336.16;;;14.70;72.63
7962;BME280;4026;43.652;24.906;2024-02-04T12:17:12;99340.91;;;14.44;71.03
7962;BME280;4026;43.652;24.906;2024-02-04T12:19:41;99336.88;;;14.51;73.16
7962;BME280;4026;43.652;24.906;2024-02-04T12:22:08;99337.34;;;14.56;70.96
7962;BME280;4026;43.652;24.906;2024-02-04T12:24:35;99332.78;;;14.39;71.57
7962;BME280;4026;43.652;24.906;2024-02-04T12:27:03;99337.66;;;14.42;71.56
7962;BME280;4026;43.652;24.906;2024-02-04T12:29:32;99312.81;;;14.52;70.18
7962;BME280;4026;43.652;24.906;2024-02-04T12:31:59;99306.25;;;14.48;72.88
7962;BME280;4026;43.652;24.906;2024-02-04T12:34:26;99311.63;;;14.35;71.65
7962;BME280;4026;43.652;24.906;2024-02-04T12:37:00;99316.63;;;14.37;70.96
7962;BME280;4026;43.652;24.906;2024-02-04T12:39:27;99313.53;;;14.33;71.17
7962;BME280;4026;43.652;24.906;2024-02-04T12:41:54;99314.00;;;14.17;72.75
7962;BME280;4026;43.652;24.906;2024-02-04T12:44:21;99313.00;;;14.39;70.10
7962;BME280;4026;43.652;24.906;2024-02-04T12:46:52;99303.69;;;14.48;68.50
7962;BME280;4026;43.652;24.906;2024-02-04T12:49:19;99300.84;;;14.51;68.41
7962;BME280;4026;43.652;24.906;2024-02-04T12:51:47;99288.50;;;14.45;68.49
7962;BME280;4026;43.652;24.906;2024-02-04T12:54:14;99292.31;;;14.41;70.66
7962;BME280;4026;43.652;24.906;2024-02-04T12:56:44;99303.56;;;14.40;68.13
7962;BME280;4026;43.652;24.906;2024-02-04T12:59:12;99292.25;;;14.62;66.48
7962;BME280;4026;43.652;24.906;2024-02-04T13:01:53;99284.81;;;14.68;65.60
7962;BME280;4026;43.652;24.906;2024-02-04T13:04:21;99289.59;;;14.42;66.43
7962;BME280;4026;43.652;24.906;2024-02-04T13:06:47;99282.97;;;14.40;67.26
7962;BME280;4026;43.652;24.906;2024-02-04T13:09:15;99263.47;;;14.37;66.49
7962;BME280;4026;43.652;24.906;2024-02-04T13:11:42;99271.13;;;14.27;67.80
7962;BME280;4026;43.652;24.906;2024-02-04T13:14:09;99281.16;;;14.61;65.77
7962;BME280;4026;43.652;24.906;2024-02-04T13:16:37;99276.81;;;14.71;65.86
7962;BME280;4026;43.652;24.906;2024-02-04T13:19:05;99278.16;;;14.66;65.52
7962;BME280;4026;43.652;24.906;2024-02-04T13:21:32;99279.56;;;14.70;64.29
7962;BME280;4026;43.652;24.906;2024-02-04T13:23:59;99279.28;;;14.83;65.13
7962;BME280;4026;43.652;24.906;2024-02-04T13:26:26;99285.56;;;14.90;62.70
7962;BME280;4026;43.652;24.906;2024-02-04T13:28:53;99285.00;;;15.06;61.75
7962;BME280;4026;43.652;24.906;2024-02-04T13:31:20;99278.50;;;14.92;61.27
7962;BME280;4026;43.652;24.906;2024-02-04T13:33:47;99283.59;;;14.63;61.69
7962;BME280;4026;43.652;24.906;2024-02-04T13:36:15;99278.16;;;14.56;64.21
7962;BME280;4026;43.652;24.906;2024-02-04T13:38:42;99288.72;;;14.53;63.74
7962;BME280;4026;43.652;24.906;2024-02-04T13:41:09;99299.13;;;14.21;65.75
7962;BME280;4026;43.652;24.906;2024-02-04T13:43:36;99291.50;;;14.10;66.07
7962;BME280;4026;43.652;24.906;2024-02-04T13:46:03;99292.00;;;14.03;67.40
7962;BME280;4026;43.652;24.906;2024-02-04T13:48:30;99279.69;;;13.76;66.82
7962;BME280;4026;43.652;24.906;2024-02-04T13:50:56;99279.31;;;13.60;68.86
7962;BME280;4026;43.652;24.906;2024-02-04T13:53:25;99281.31;;;13.56;69.52
7962;BME280;4026;43.652;24.906;2024-02-04T13:55:52;99273.66;;;13.66;69.49
7962;BME280;4026;43.652;24.906;2024-02-04T13:58:19;99280.19;;;13.70;69.79
7962;BME280;4026;43.652;24.906;2024-02-04T14:00:48;99266.09;;;13.65;69.94